createdAt,value
2022-11-03T00:01:36.216Z,5.76
2022-11-03T00:04:04.111Z,5.61
2022-11-03T00:06:32.265Z,5.73
2022-11-03T00:09:01.253Z,5.70
2022-11-03T00:11:29.135Z,5.59
2022-11-03T00:13:58.829Z,5.20
2022-11-03T00:16:26.712Z,5.47
2022-11-03T00:18:55.377Z,5.55
2022-11-03T00:21:23.727Z,5.42
2022-11-03T00:23:51.950Z,5.25
2022-11-03T00:26:21.920Z,5.34
2022-11-03T00:28:51.165Z,5.37
2022-11-03T00:31:22.682Z,4.85
2022-11-03T00:33:51.189Z,4.57
2022-11-03T00:36:20.773Z,4.72
2022-11-03T00:38:48.903Z,4.75
2022-11-03T00:41:21.378Z,4.93
2022-11-03T00:43:50.121Z,5.03
2022-11-03T00:46:18.661Z,4.69
2022-11-03T00:48:48.217Z,4.59
2022-11-03T00:51:17.654Z,4.82
2022-11-03T00:53:47.582Z,4.73
2022-11-03T00:56:17.161Z,4.90
2022-11-03T00:58:45.665Z,5.10
2022-11-03T01:01:15.593Z,4.72
2022-11-03T01:04:05.919Z,4.87
2022-11-03T01:06:50.591Z,5.01
2022-11-03T01:09:19.524Z,5.06
2022-11-03T01:12:01.932Z,4.97
2022-11-03T01:14:32.208Z,4.97
2022-11-03T01:17:00.386Z,5.03
2022-11-03T01:19:28.205Z,5.13
2022-11-03T01:21:57.683Z,5.19
2022-11-03T01:24:25.498Z,5.14
2022-11-03T01:26:53.369Z,5.04
2022-11-03T01:29:21.517Z,5.03
2022-11-03T01:31:49.424Z,4.90
2022-11-03T01:34:18.894Z,4.87
2022-11-03T01:36:47.849Z,5.03
2022-11-03T01:39:18.791Z,5.27
2022-11-03T01:41:49.356Z,5.10
2022-11-03T01:44:46.283Z,5.21
2022-11-03T01:47:20.848Z,5.24
2022-11-03T01:49:52.130Z,5.27
2022-11-03T01:52:25.890Z,5.06
2022-11-03T01:55:01.236Z,4.90
2022-11-03T01:57:37.488Z,5.01
2022-11-03T02:00:07.300Z,5.10
2022-11-03T02:02:41.827Z,5.06
2022-11-03T02:05:13.904Z,5.05
2022-11-03T02:07:48.214Z,4.74
2022-11-03T02:10:18.035Z,4.88
2022-11-03T02:12:46.867Z,4.85
2022-11-03T02:15:17.210Z,5.01
2022-11-03T02:17:47.799Z,5.04
2022-11-03T02:20:18.561Z,5.01
2022-11-03T02:23:02.038Z,5.19
2022-11-03T02:25:41.444Z,5.06
2022-11-03T02:28:09.688Z,5.11
2022-11-03T02:30:44.916Z,5.13
2022-11-03T02:33:25.693Z,5.15
2022-11-03T02:35:58.788Z,5.13
2022-11-03T02:38:30.054Z,5.10
2022-11-03T02:41:02.091Z,5.13
2022-11-03T02:43:30.699Z,5.04
2022-11-03T02:45:58.952Z,5.11
2022-11-03T02:48:26.856Z,5.19
2022-11-03T02:50:55.771Z,5.10
2022-11-03T02:53:23.559Z,5.23
2022-11-03T02:55:59.256Z,5.04
2022-11-03T02:58:34.176Z,5.17
2022-11-03T03:01:11.976Z,5.16
2022-11-03T03:03:43.527Z,4.83
2022-11-03T03:06:18.103Z,5.02
2022-11-03T03:08:49.327Z,4.94
2022-11-03T03:11:17.399Z,4.58
2022-11-03T03:13:46.879Z,4.79
2022-11-03T03:16:21.417Z,4.81
2022-11-03T03:18:57.764Z,4.79
2022-11-03T03:21:32.605Z,4.33
2022-11-03T03:24:04.330Z,4.51
2022-11-03T03:26:36.540Z,4.35
2022-11-03T03:29:10.744Z,4.73
2022-11-03T03:31:41.945Z,4.88
2022-11-03T03:34:31.487Z,4.99
2022-11-03T03:37:01.293Z,4.80
2022-11-03T03:39:33.390Z,5.20
2022-11-03T03:42:03.949Z,5.42
2022-11-03T03:44:35.266Z,5.54
2022-11-03T03:47:09.127Z,5.49
2022-11-03T03:49:36.991Z,5.40
2022-11-03T03:52:05.387Z,5.62
2022-11-03T03:54:33.169Z,5.33
2022-11-03T03:57:03.939Z,5.07
2022-11-03T03:59:33.221Z,5.19
2022-11-03T04:02:01.738Z,5.49
2022-11-03T04:04:30.028Z,5.65
2022-11-03T04:07:11.763Z,5.68
2022-11-03T04:09:39.546Z,5.70
2022-11-03T04:12:26.751Z,5.86
2022-11-03T04:15:13.518Z,6.02
2022-11-03T04:18:02.300Z,5.55
2022-11-03T04:20:48.262Z,5.64
2022-11-03T04:23:16.244Z,5.41
2022-11-03T04:25:49.095Z,5.34
2022-11-03T04:28:17.146Z,5.25
2022-11-03T04:30:47.451Z,5.42
2022-11-03T04:33:17.227Z,5.42
2022-11-03T04:35:45.461Z,5.52
2022-11-03T04:38:23.209Z,5.31
2022-11-03T04:40:56.894Z,4.99
2022-11-03T04:43:31.074Z,5.06
2022-11-03T04:46:00.395Z,5.25
2022-11-03T04:48:30.028Z,5.17
2022-11-03T04:51:01.460Z,4.97
2022-11-03T04:53:32.957Z,5.04
2022-11-03T04:56:06.994Z,5.22
2022-11-03T04:58:39.773Z,5.28
2022-11-03T05:01:13.605Z,5.06
2022-11-03T05:03:43.274Z,4.71
2022-11-03T05:06:15.362Z,4.56
2022-11-03T05:08:45.271Z,4.63
2022-11-03T05:11:21.341Z,4.72
2022-11-03T05:13:49.773Z,4.71
2022-11-03T05:16:19.479Z,4.68
2022-11-03T05:18:50.669Z,4.44
2022-11-03T05:21:20.093Z,4.59
2022-11-03T05:23:50.783Z,4.66
2022-11-03T05:26:21.525Z,4.74
2022-11-03T05:28:53.550Z,4.64
2022-11-03T05:31:26.771Z,4.62
2022-11-03T05:33:57.893Z,4.45
2022-11-03T05:36:28.346Z,4.56
2022-11-03T05:38:57.834Z,4.56
2022-11-03T05:41:27.293Z,4.44
2022-11-03T05:43:59.999Z,4.54
2022-11-03T05:46:32.396Z,4.52
2022-11-03T05:49:03.403Z,4.39
2022-11-03T05:51:34.829Z,4.45
2022-11-03T05:54:05.507Z,4.37
2022-11-03T05:56:36.001Z,4.38
2022-11-03T05:59:05.270Z,4.26
2022-11-03T06:01:38.166Z,4.30
2022-11-03T06:04:19.481Z,4.22
2022-11-03T06:06:53.838Z,4.22
2022-11-03T06:09:24.408Z,4.32
2022-11-03T06:11:53.078Z,4.59
2022-11-03T06:14:24.364Z,4.52
2022-11-03T06:16:57.754Z,4.27
2022-11-03T06:19:29.816Z,4.12
2022-11-03T06:22:00.152Z,4.23
2022-11-03T06:24:32.045Z,4.36
2022-11-03T06:26:59.960Z,4.26
2022-11-03T06:29:28.031Z,4.26
2022-11-03T06:31:58.187Z,4.38
2022-11-03T06:34:39.143Z,4.34
2022-11-03T06:37:17.264Z,4.39
2022-11-03T06:39:45.158Z,4.47
2022-11-03T06:42:14.965Z,4.23
2022-11-03T06:44:45.057Z,4.57
2022-11-03T06:47:24.244Z,4.61
2022-11-03T06:49:53.872Z,4.55
2022-11-03T06:52:27.495Z,4.52
2022-11-03T06:55:01.692Z,4.72
2022-11-03T06:57:35.387Z,4.98
2022-11-03T07:00:34.669Z,4.85
2022-11-03T07:02:59.395Z,4.93
2022-11-03T07:05:29.320Z,4.91
2022-11-03T07:07:59.955Z,5.22
2022-11-03T07:10:29.466Z,5.23
2022-11-03T07:12:58.567Z,5.64
2022-11-03T07:15:32.110Z,5.63
2022-11-03T07:18:03.547Z,5.84
2022-11-03T07:20:31.585Z,6.05
2022-11-03T07:23:02.838Z,6.00
2022-11-03T07:25:32.738Z,6.20
2022-11-03T07:28:04.595Z,6.15
2022-11-03T07:30:36.085Z,6.32
2022-11-03T07:33:15.275Z,6.43
2022-11-03T07:36:13.941Z,6.44
2022-11-03T07:38:34.773Z,6.90
2022-11-03T07:41:02.633Z,6.92
2022-11-03T07:43:34.850Z,7.26
2022-11-03T07:46:03.614Z,7.39
2022-11-03T07:48:37.543Z,8.02
2022-11-03T07:51:17.133Z,8.19
2022-11-03T07:53:47.479Z,8.48
2022-11-03T07:56:20.827Z,8.78
2022-11-03T07:58:52.209Z,8.67
2022-11-03T08:01:32.253Z,8.77
2022-11-03T08:04:04.495Z,8.82
2022-11-03T08:06:32.323Z,9.06
2022-11-03T08:09:00.456Z,9.21
2022-11-03T08:11:29.654Z,9.69
2022-11-03T08:13:58.419Z,9.65
2022-11-03T08:16:26.413Z,9.90
2022-11-03T08:18:54.287Z,10.32
2022-11-03T08:21:23.527Z,10.41
2022-11-03T08:23:52.009Z,10.65
2022-11-03T08:26:19.832Z,10.61
2022-11-03T08:28:47.896Z,10.53
2022-11-03T08:31:16.024Z,11.12
2022-11-03T08:33:43.830Z,11.22
2022-11-03T08:36:11.953Z,11.73
2022-11-03T08:38:41.258Z,11.91
2022-11-03T08:41:10.201Z,12.09
2022-11-03T08:43:38.168Z,12.09
2022-11-03T08:46:15.910Z,12.22
2022-11-03T08:48:45.618Z,12.39
2022-11-03T08:51:14.570Z,12.15
2022-11-03T08:53:44.320Z,12.08
2022-11-03T08:56:14.342Z,12.24
2022-11-03T08:58:43.035Z,12.22
2022-11-03T09:01:11.179Z,12.16
2022-11-03T09:03:39.288Z,12.37
2022-11-03T09:06:08.020Z,12.69
2022-11-03T09:11:24.961Z,12.86
2022-11-03T09:13:52.998Z,13.00
2022-11-03T09:16:20.775Z,12.92
2022-11-03T09:18:48.582Z,12.82
2022-11-03T09:21:16.394Z,12.96
2022-11-03T09:23:44.190Z,13.22
2022-11-03T09:26:11.979Z,13.42
2022-11-03T09:28:41.268Z,13.47
2022-11-03T09:31:09.097Z,13.95
2022-11-03T09:33:36.997Z,14.06
2022-11-03T09:36:04.917Z,13.90
2022-11-03T09:38:32.767Z,13.92
2022-11-03T09:41:00.985Z,13.93
2022-11-03T09:43:28.781Z,14.03
2022-11-03T09:45:58.305Z,13.99
2022-11-03T09:48:27.036Z,14.25
2022-11-03T09:50:55.789Z,14.48
2022-11-03T09:53:23.632Z,14.88
2022-11-03T09:55:51.502Z,14.90
2022-11-03T09:58:19.818Z,14.76
2022-11-03T10:00:47.955Z,14.97
2022-11-03T10:03:20.369Z,15.25
2022-11-03T10:05:49.062Z,15.22
2022-11-03T10:08:24.071Z,15.26
2022-11-03T10:10:52.301Z,15.08
2022-11-03T10:13:26.449Z,15.01
2022-11-03T10:15:54.456Z,15.42
2022-11-03T10:18:23.854Z,15.88
2022-11-03T10:20:51.651Z,15.89
2022-11-03T10:23:19.468Z,15.89
2022-11-03T10:25:47.951Z,15.65
2022-11-03T10:28:21.374Z,15.84
2022-11-03T10:31:10.525Z,15.51
2022-11-03T10:33:41.861Z,15.28
2022-11-03T10:36:25.153Z,15.47
2022-11-03T10:38:53.571Z,15.39
2022-11-03T10:41:22.968Z,15.57
2022-11-03T10:44:02.299Z,15.30
2022-11-03T10:46:51.306Z,15.01
2022-11-03T10:49:21.501Z,15.29
2022-11-03T10:51:51.471Z,15.26
2022-11-03T10:54:21.966Z,15.45
2022-11-03T10:56:50.902Z,15.59
2022-11-03T10:59:21.661Z,15.46
2022-11-03T11:01:49.557Z,15.38
2022-11-03T11:04:20.980Z,15.38
2022-11-03T11:06:49.510Z,15.57
2022-11-03T11:09:22.696Z,15.36
2022-11-03T11:12:36.915Z,15.26
2022-11-03T11:15:23.106Z,14.82
2022-11-03T11:17:51.086Z,14.99
2022-11-03T11:20:35.096Z,14.99
2022-11-03T11:23:49.200Z,15.17
2022-11-03T11:26:31.110Z,14.99
2022-11-03T11:29:43.993Z,14.94
2022-11-03T11:32:47.675Z,14.99
2022-11-03T11:35:19.888Z,14.88
2022-11-03T11:37:49.315Z,14.92
2022-11-03T11:40:53.357Z,15.10
2022-11-03T11:43:28.224Z,15.02
2022-11-03T11:46:33.222Z,14.71
2022-11-03T11:49:18.359Z,14.71
2022-11-03T11:51:46.745Z,14.74
2022-11-03T11:54:19.058Z,14.80
2022-11-03T11:56:49.779Z,14.66
2022-11-03T11:59:25.077Z,14.54
2022-11-03T12:01:55.936Z,14.38
2022-11-03T12:04:26.230Z,14.43
2022-11-03T12:06:55.466Z,14.22
2022-11-03T12:09:28.020Z,14.27
2022-11-03T12:12:00.543Z,14.35
2022-11-03T12:14:35.151Z,14.61
2022-11-03T12:17:34.152Z,14.23
2022-11-03T12:20:01.952Z,14.26
2022-11-03T12:22:43.538Z,14.20
2022-11-03T12:25:40.099Z,14.34
2022-11-03T12:28:08.104Z,14.59
2022-11-03T12:30:40.010Z,14.49
2022-11-03T12:33:08.850Z,14.51
2022-11-03T12:35:37.107Z,14.44
2022-11-03T12:38:04.908Z,14.34
2022-11-03T12:40:32.689Z,14.52
2022-11-03T12:43:01.830Z,14.51
2022-11-03T12:45:29.621Z,14.48
2022-11-03T12:47:57.460Z,14.78
2022-11-03T12:50:25.239Z,14.44
2022-11-03T12:52:52.999Z,14.41
2022-11-03T12:55:20.901Z,14.44
2022-11-03T12:57:48.783Z,14.43
2022-11-03T13:00:18.644Z,14.23
2022-11-03T13:02:46.582Z,14.21
2022-11-03T13:05:15.469Z,14.40
2022-11-03T13:07:43.470Z,14.28
2022-11-03T13:10:11.710Z,14.11
2022-11-03T13:12:41.486Z,14.25
2022-11-03T13:15:13.433Z,14.43
2022-11-03T13:18:07.587Z,14.14
2022-11-03T13:20:31.442Z,14.16
2022-11-03T13:22:59.359Z,14.21
2022-11-03T13:25:28.818Z,14.24
2022-11-03T13:27:57.085Z,13.93
2022-11-03T13:30:26.810Z,13.77
2022-11-03T13:32:55.978Z,13.88
2022-11-03T13:35:24.077Z,13.71
2022-11-03T13:37:52.102Z,13.61
2022-11-03T13:40:55.466Z,13.76
2022-11-03T13:43:08.933Z,13.46
2022-11-03T13:45:36.961Z,13.36
2022-11-03T13:50:54.315Z,13.46
2022-11-03T13:56:12.878Z,13.72
2022-11-03T14:01:33.639Z,13.38
2022-11-03T14:06:50.914Z,13.16
2022-11-03T14:09:19.060Z,13.47
2022-11-03T14:12:04.327Z,13.24
2022-11-03T14:14:32.844Z,13.21
2022-11-03T14:17:00.752Z,13.10
2022-11-03T14:19:37.958Z,13.22
2022-11-03T14:22:09.622Z,13.13
2022-11-03T14:24:37.483Z,13.01
2022-11-03T14:27:05.493Z,13.02
2022-11-03T14:29:33.412Z,12.91
2022-11-03T14:32:01.330Z,12.81
2022-11-03T14:34:30.864Z,12.79
2022-11-03T14:36:58.896Z,12.66
2022-11-03T14:39:26.889Z,12.57
2022-11-03T14:42:05.851Z,12.64
2022-11-03T14:44:34.847Z,12.57
2022-11-03T14:47:03.873Z,12.50
2022-11-03T14:49:34.289Z,12.53
2022-11-03T14:52:03.346Z,12.52
2022-11-03T14:54:32.410Z,12.36
2022-11-03T14:57:00.522Z,12.34
2022-11-03T14:59:28.447Z,12.30
2022-11-03T15:01:56.711Z,12.38
2022-11-03T15:04:25.073Z,12.20
2022-11-03T15:06:54.445Z,12.21
2022-11-03T15:09:22.331Z,12.28
2022-11-03T15:11:50.351Z,12.14
2022-11-03T15:14:18.123Z,12.17
2022-11-03T15:16:46.272Z,12.08
2022-11-03T15:19:14.142Z,12.11
2022-11-03T15:21:42.291Z,12.03
2022-11-03T15:26:59.469Z,11.94
2022-11-03T15:29:27.270Z,11.91
2022-11-03T15:31:55.102Z,11.90
2022-11-03T15:34:22.877Z,11.99
2022-11-03T15:36:50.703Z,11.92
2022-11-03T15:39:19.979Z,11.91
2022-11-03T15:41:47.924Z,11.89
2022-11-03T15:44:15.748Z,12.00
2022-11-03T15:46:43.620Z,12.00
2022-11-03T15:49:11.571Z,11.85
2022-11-03T15:51:39.898Z,11.83
2022-11-03T15:54:08.206Z,11.76
2022-11-03T15:56:37.386Z,11.74
2022-11-03T15:59:05.180Z,11.73
2022-11-03T16:01:33.144Z,11.82
2022-11-03T16:04:01.162Z,11.75
2022-11-03T16:06:53.861Z,11.85
2022-11-03T16:09:17.291Z,11.83
2022-11-03T16:11:46.514Z,11.81
2022-11-03T16:14:15.028Z,11.74
2022-11-03T16:16:42.891Z,11.89
2022-11-03T16:19:11.039Z,11.65
2022-11-03T16:21:38.959Z,11.68
2022-11-03T16:24:07.267Z,11.81
2022-11-03T16:26:35.193Z,11.59
2022-11-03T16:29:04.562Z,11.63
2022-11-03T16:31:32.665Z,11.59
2022-11-03T16:34:00.531Z,11.72
2022-11-03T16:36:28.340Z,11.62
2022-11-03T16:38:56.300Z,11.69
2022-11-03T16:41:24.085Z,11.78
2022-11-03T16:43:51.969Z,11.76
2022-11-03T16:46:21.299Z,11.59
2022-11-03T16:48:49.243Z,11.67
2022-11-03T16:51:17.138Z,11.61
2022-11-03T16:53:45.018Z,11.48
2022-11-03T16:56:12.808Z,11.43
2022-11-03T16:58:40.995Z,11.48
2022-11-03T17:01:09.183Z,11.61
2022-11-03T17:03:38.683Z,11.57
2022-11-03T17:06:06.823Z,11.54
2022-11-03T17:11:36.528Z,11.53
2022-11-03T17:14:05.989Z,11.54
2022-11-03T17:16:33.992Z,11.52
2022-11-03T17:19:03.254Z,11.53
2022-11-03T17:21:31.194Z,11.47
2022-11-03T17:23:59.992Z,11.43
2022-11-03T17:26:38.925Z,11.28
2022-11-03T17:29:15.733Z,11.30
2022-11-03T17:31:43.607Z,11.33
2022-11-03T17:34:14.059Z,11.33
2022-11-03T17:36:41.790Z,11.39
2022-11-03T17:39:13.833Z,11.32
2022-11-03T17:41:41.661Z,11.31
2022-11-03T17:44:11.920Z,11.32
2022-11-03T17:46:39.793Z,11.39
2022-11-03T17:49:07.642Z,11.36
2022-11-03T17:51:41.396Z,11.43
2022-11-03T17:54:10.199Z,11.34
2022-11-03T17:56:38.076Z,11.33
2022-11-03T17:59:06.291Z,11.36
2022-11-03T18:01:34.307Z,11.44
2022-11-03T18:04:02.811Z,11.54
2022-11-03T18:06:30.852Z,11.58
2022-11-03T18:09:00.447Z,11.53
2022-11-03T18:11:48.789Z,11.49
2022-11-03T18:14:17.046Z,11.61
2022-11-03T18:16:45.078Z,11.56
2022-11-03T18:19:15.238Z,11.55
2022-11-03T18:21:43.903Z,11.68
2022-11-03T18:24:15.622Z,11.67
2022-11-03T18:26:43.919Z,11.62
2022-11-03T18:29:11.933Z,11.91
2022-11-03T18:31:42.282Z,11.87
2022-11-03T18:34:15.895Z,11.58
2022-11-03T18:36:44.477Z,11.62
2022-11-03T18:39:18.333Z,11.47
2022-11-03T18:41:46.399Z,11.68
2022-11-03T18:44:18.628Z,11.86
2022-11-03T18:46:46.681Z,11.84
2022-11-03T18:49:14.633Z,11.54
2022-11-03T18:51:46.341Z,11.79
2022-11-03T18:54:20.678Z,11.84
2022-11-03T18:56:49.198Z,11.50
2022-11-03T18:59:22.150Z,10.98
2022-11-03T19:01:50.242Z,11.11
2022-11-03T19:04:18.486Z,11.26
2022-11-03T19:06:48.405Z,11.21
2022-11-03T19:09:20.824Z,11.05
2022-11-03T19:11:50.697Z,11.04
2022-11-03T19:14:24.258Z,11.06
2022-11-03T19:19:41.392Z,11.01
2022-11-03T19:22:13.787Z,11.06
2022-11-03T19:24:43.131Z,11.01
2022-11-03T19:27:15.166Z,11.08
2022-11-03T19:29:43.496Z,11.07
2022-11-03T19:32:18.796Z,10.99
2022-11-03T19:34:47.326Z,10.93
2022-11-03T19:37:15.605Z,10.93
2022-11-03T19:39:44.839Z,11.07
2022-11-03T19:42:28.933Z,11.12
2022-11-03T19:44:58.096Z,10.92
2022-11-03T19:47:31.602Z,10.95
2022-11-03T19:50:02.392Z,11.00
2022-11-03T19:52:31.690Z,10.97
2022-11-03T19:55:03.124Z,11.14
2022-11-03T19:57:30.988Z,11.15
2022-11-03T19:59:59.755Z,11.38
2022-11-03T20:02:29.143Z,11.50
2022-11-03T20:04:58.237Z,11.32
2022-11-03T20:07:31.469Z,11.17
2022-11-03T20:10:03.306Z,11.16
2022-11-03T20:12:32.142Z,11.22
2022-11-03T20:14:59.995Z,11.24
2022-11-03T20:17:27.852Z,11.15
2022-11-03T20:19:55.742Z,11.22
2022-11-03T20:22:29.662Z,11.22
2022-11-03T20:25:02.951Z,11.21
2022-11-03T20:27:33.487Z,11.21
2022-11-03T20:30:02.099Z,11.20
2022-11-03T20:32:29.888Z,11.20
2022-11-03T20:34:57.706Z,11.30
2022-11-03T20:37:25.520Z,11.46
2022-11-03T20:39:54.291Z,11.58
2022-11-03T20:42:24.512Z,11.60
2022-11-03T20:44:53.968Z,11.55
2022-11-03T20:47:22.096Z,11.64
2022-11-03T20:49:49.967Z,11.41
2022-11-03T20:52:17.978Z,11.35
2022-11-03T20:54:45.786Z,11.43
2022-11-03T20:57:14.399Z,11.71
2022-11-03T20:59:42.563Z,11.84
2022-11-03T21:02:13.733Z,11.99
2022-11-03T21:04:43.272Z,11.47
2022-11-03T21:07:13.701Z,10.94
2022-11-03T21:09:41.972Z,11.15
2022-11-03T21:12:13.223Z,10.89
2022-11-03T21:15:04.027Z,10.96
2022-11-03T21:17:50.475Z,10.75
2022-11-03T21:20:18.346Z,10.80
2022-11-03T21:22:54.437Z,10.89
2022-11-03T21:25:24.648Z,10.93
2022-11-03T21:27:53.771Z,10.97
2022-11-03T21:30:25.000Z,11.35
2022-11-03T21:32:54.289Z,11.18
2022-11-03T21:35:23.598Z,11.08
2022-11-03T21:37:51.458Z,11.14
2022-11-03T21:40:19.308Z,11.40
2022-11-03T21:43:04.788Z,11.50
2022-11-03T21:45:33.204Z,10.83
2022-11-03T21:48:20.961Z,11.06
2022-11-03T21:50:49.237Z,11.39
2022-11-03T21:53:17.127Z,11.07
2022-11-03T21:55:47.504Z,11.10
2022-11-03T21:58:15.664Z,11.02
2022-11-03T22:00:43.550Z,10.78
2022-11-03T22:03:12.824Z,10.86
2022-11-03T22:05:42.390Z,11.07
2022-11-03T22:08:10.413Z,10.89
2022-11-03T22:10:39.873Z,11.00
2022-11-03T22:13:07.995Z,11.11
2022-11-03T22:15:53.335Z,11.03
2022-11-03T22:18:22.547Z,10.69
2022-11-03T22:21:07.913Z,10.77
2022-11-03T22:24:07.661Z,10.75
2022-11-03T22:26:53.489Z,10.73
2022-11-03T22:29:38.862Z,10.93
2022-11-03T22:32:14.147Z,10.95
2022-11-03T22:35:00.747Z,10.92
2022-11-03T22:40:14.046Z,10.86
2022-11-03T22:42:59.289Z,10.95
2022-11-03T22:45:44.645Z,10.68
2022-11-03T22:48:12.772Z,10.61
2022-11-03T22:50:42.032Z,10.75
2022-11-03T22:53:27.402Z,10.71
2022-11-03T22:55:57.814Z,10.69
2022-11-03T22:58:30.254Z,10.77
2022-11-03T23:00:58.820Z,11.03
2022-11-03T23:03:33.302Z,10.89
2022-11-03T23:06:10.397Z,11.07
2022-11-03T23:08:39.973Z,10.91
2022-11-03T23:11:15.945Z,11.01
2022-11-03T23:13:45.907Z,11.00
2022-11-03T23:16:15.528Z,11.00
2022-11-03T23:19:01.386Z,10.91
2022-11-03T23:21:33.185Z,11.03
2022-11-03T23:24:18.662Z,11.02
2022-11-03T23:26:49.479Z,10.99
2022-11-03T23:29:17.923Z,10.90
2022-11-03T23:31:52.176Z,10.86
2022-11-03T23:34:20.113Z,10.99
2022-11-03T23:36:49.394Z,10.91
2022-11-03T23:39:19.156Z,11.18
2022-11-03T23:41:47.754Z,11.29
2022-11-03T23:44:17.135Z,11.43
2022-11-03T23:47:03.041Z,11.58
2022-11-03T23:49:31.037Z,11.72
2022-11-03T23:52:00.316Z,11.72
2022-11-03T23:54:28.406Z,11.68
2022-11-03T23:57:10.111Z,11.68
2022-11-03T23:59:37.922Z,11.77
